Terminal Aerodrome Forecast
Issued by NWS Raleigh/Durham, NC

Home | Current Version | Previous Version | Text Only | Print | Product List | Glossary On
Versions: 1 2 3 4 5 6 7 8 9 10 11 12 13 14 15 16 17 18 19 20 21 22 23 24 25 26 27 28 29 30 31 32 33 34 35 36 37 38 39 40
000
FTUS42 KRAH 221123
TAFGSO
TAF
KGSO 221123Z 2212/2312 VRB02KT P6SM FEW250
     FM221500 21007KT P6SM FEW250
     FM222300 20003KT P6SM FEW120 SCT250
     FM231000 12003KT P6SM BKN120 OVC200=

USA.gov is the U.S. government's official web portal to all federal, state and local government web resources and services.